createdAt,value
2022-10-26T08:58:03.036Z,2.17
2022-10-26T09:00:31.571Z,1.95
2022-10-26T09:05:36.730Z,1.80
2022-10-26T09:08:14.623Z,2.00
2022-10-26T09:10:51.173Z,1.23
2022-10-26T09:13:29.629Z,1.42
2022-10-26T09:16:03.545Z,1.98
2022-10-26T09:18:42.185Z,2.47
2022-10-26T09:21:21.747Z,2.70
2022-10-26T09:23:58.123Z,2.55
2022-10-26T09:26:32.726Z,2.28
2022-10-26T09:29:04.525Z,2.35
2022-10-26T09:31:43.339Z,2.55
2022-10-26T09:34:19.511Z,1.77
2022-10-26T09:36:46.996Z,2.22
2022-10-26T09:39:22.301Z,2.97
2022-10-26T09:41:56.769Z,2.72
2022-10-26T09:44:29.030Z,1.90
2022-10-26T09:47:01.545Z,2.35
2022-10-26T09:49:36.709Z,2.50
2022-10-26T09:52:04.403Z,2.67
2022-10-26T09:54:31.953Z,2.58
2022-10-26T09:57:02.212Z,2.70
2022-10-26T09:59:34.705Z,1.63
2022-10-26T10:02:02.207Z,2.50
2022-10-26T10:04:33.692Z,1.70
2022-10-26T10:07:14.469Z,2.45
2022-10-26T10:12:20.278Z,1.95
2022-10-26T10:14:58.699Z,2.28
2022-10-26T10:17:27.360Z,2.30
2022-10-26T10:19:54.902Z,2.17
2022-10-26T10:22:26.560Z,2.40
2022-10-26T10:24:56.213Z,2.17
2022-10-26T10:27:24.805Z,2.45
2022-10-26T10:29:58.361Z,2.22
2022-10-26T10:32:35.603Z,2.22
2022-10-26T10:35:24.140Z,3.05
2022-10-26T10:37:53.531Z,2.00
2022-10-26T10:40:23.773Z,3.22
2022-10-26T10:42:53.354Z,2.33
2022-10-26T10:45:23.436Z,1.80
2022-10-26T10:48:03.014Z,1.88
2022-10-26T10:50:31.449Z,2.95
2022-10-26T10:55:47.612Z,2.20
2022-10-26T10:58:24.513Z,2.47
2022-10-26T11:00:52.341Z,1.90
2022-10-26T11:03:43.504Z,2.63
2022-10-26T11:06:17.862Z,2.53
2022-10-26T11:08:50.377Z,1.73
2022-10-26T11:11:21.284Z,2.50
2022-10-26T11:13:54.548Z,2.10
2022-10-26T11:16:27.010Z,1.98
2022-10-26T11:18:59.521Z,2.47
2022-10-26T11:21:29.605Z,2.10
2022-10-26T11:24:10.926Z,2.70
2022-10-26T11:26:46.197Z,2.92
2022-10-26T11:29:24.500Z,2.13
2022-10-26T11:31:58.386Z,2.60
2022-10-26T11:34:35.392Z,3.13
2022-10-26T11:37:09.407Z,2.60
2022-10-26T11:39:43.513Z,1.77
2022-10-26T11:42:20.967Z,2.30
2022-10-26T11:44:53.258Z,1.98
2022-10-26T11:47:25.673Z,2.30
2022-10-26T11:50:04.325Z,2.40
2022-10-26T11:52:39.972Z,2.55
2022-10-26T11:55:11.344Z,2.15
2022-10-26T11:57:39.978Z,1.92
2022-10-26T12:00:10.159Z,2.22
2022-10-26T12:05:22.938Z,2.40
2022-10-26T12:07:54.100Z,1.75
2022-10-26T12:10:28.775Z,1.83
2022-10-26T12:13:03.934Z,1.75
2022-10-26T12:16:01.786Z,1.70
2022-10-26T12:18:50.359Z,1.75
2022-10-26T12:21:19.621Z,2.10
2022-10-26T12:23:58.673Z,1.88
2022-10-26T12:26:40.681Z,1.80
2022-10-26T12:29:30.830Z,1.95
2022-10-26T12:31:58.879Z,2.00
2022-10-26T12:35:00.209Z,1.77
2022-10-26T12:37:37.124Z,1.70
2022-10-26T12:40:41.662Z,1.80
2022-10-26T12:43:39.474Z,1.65
2022-10-26T12:46:42.995Z,1.95
2022-10-26T12:50:01.123Z,2.08
2022-10-26T12:52:39.101Z,2.05
2022-10-26T12:55:39.409Z,1.88
2022-10-26T12:58:42.529Z,2.00
2022-10-26T13:01:38.752Z,2.05
2022-10-26T13:04:28.261Z,2.03
2022-10-26T13:07:20.899Z,1.30
2022-10-26T13:10:00.855Z,1.52
2022-10-26T13:12:30.586Z,2.05
2022-10-26T13:15:02.968Z,2.10
2022-10-26T13:20:08.411Z,1.48
2022-10-26T13:22:46.684Z,1.45
2022-10-26T13:25:24.743Z,1.60
2022-10-26T13:28:01.666Z,1.50
2022-10-26T13:30:48.690Z,1.60
2022-10-26T13:33:23.771Z,1.40
2022-10-26T13:35:55.951Z,1.63
2022-10-26T13:38:29.767Z,1.67
2022-10-26T13:41:06.138Z,1.75
2022-10-26T13:43:34.281Z,1.30
2022-10-26T13:46:06.306Z,1.90
2022-10-26T13:48:41.230Z,1.30
2022-10-26T13:51:20.942Z,1.70
2022-10-26T13:53:53.390Z,1.52
2022-10-26T13:56:30.557Z,1.60
2022-10-26T13:59:01.466Z,1.85
2022-10-26T14:01:29.537Z,1.70
2022-10-26T14:03:57.645Z,2.25
2022-10-26T14:06:30.066Z,1.60
2022-10-26T14:09:01.457Z,1.75
2022-10-26T14:11:34.752Z,1.80
2022-10-26T14:14:03.733Z,1.58
2022-10-26T14:16:34.834Z,2.08
2022-10-26T14:19:02.551Z,1.50
2022-10-26T14:21:30.780Z,1.70
2022-10-26T14:23:59.760Z,1.50
2022-10-26T14:26:29.204Z,1.60
2022-10-26T14:29:00.286Z,1.85
2022-10-26T14:31:29.548Z,1.75
2022-10-26T14:33:58.607Z,1.30
2022-10-26T14:36:32.236Z,1.48
2022-10-26T14:39:04.592Z,1.65
2022-10-26T14:41:35.615Z,1.77
2022-10-26T14:44:04.812Z,2.00
2022-10-26T14:46:36.227Z,1.80
2022-10-26T14:49:04.863Z,1.60
2022-10-26T14:51:36.523Z,2.92
2022-10-26T14:54:05.190Z,3.90
2022-10-26T14:56:40.898Z,8.65
2022-10-26T14:59:19.688Z,4.05
2022-10-26T15:01:52.908Z,2.85
2022-10-26T15:04:36.685Z,2.67
2022-10-26T15:07:17.516Z,2.25
2022-10-26T15:09:46.379Z,5.35
2022-10-26T15:12:33.510Z,6.30
2022-10-26T15:17:52.884Z,2.90
2022-10-26T15:20:23.259Z,3.22
2022-10-26T15:22:52.764Z,2.67
2022-10-26T15:25:24.527Z,1.95
2022-10-26T15:27:52.737Z,2.28
2022-10-26T15:30:27.137Z,2.40
2022-10-26T15:32:56.235Z,1.95
2022-10-26T15:35:29.073Z,2.63
2022-10-26T15:37:57.756Z,2.95
2022-10-26T15:40:27.581Z,2.60
2022-10-26T15:42:56.418Z,2.20
2022-10-26T15:45:27.854Z,2.63
2022-10-26T15:47:58.526Z,2.50
2022-10-26T15:50:27.868Z,1.77
2022-10-26T15:52:59.628Z,2.35
2022-10-26T15:55:27.306Z,1.95
2022-10-26T15:57:54.957Z,2.10
2022-10-26T16:00:22.669Z,2.80
2022-10-26T16:02:51.681Z,2.60
2022-10-26T16:05:19.165Z,3.05
2022-10-26T16:07:48.731Z,2.50
2022-10-26T16:10:21.507Z,2.33
2022-10-26T16:12:50.136Z,2.25
2022-10-26T16:15:20.374Z,2.80
2022-10-26T16:17:48.915Z,2.10
2022-10-26T16:20:20.989Z,2.20
2022-10-26T16:22:48.670Z,2.30
2022-10-26T16:25:17.971Z,3.00
2022-10-26T16:27:45.658Z,2.53
2022-10-26T16:30:14.517Z,2.10
2022-10-26T16:32:42.357Z,2.60
2022-10-26T16:35:10.813Z,3.08
2022-10-26T16:37:40.088Z,2.83
2022-10-26T16:40:09.493Z,2.25
2022-10-26T16:42:37.218Z,2.45
2022-10-26T16:45:05.816Z,2.25
2022-10-26T16:47:35.327Z,2.40
2022-10-26T16:50:03.126Z,2.70
2022-10-26T16:52:30.684Z,3.25
2022-10-26T16:54:59.511Z,3.00
2022-10-26T16:57:27.363Z,2.80
2022-10-26T16:59:54.843Z,2.95
2022-10-26T17:02:22.494Z,2.80
2022-10-26T17:04:50.063Z,2.80
2022-10-26T17:07:17.595Z,2.70
2022-10-26T17:09:45.356Z,2.38
2022-10-26T17:12:14.377Z,2.30
2022-10-26T17:14:41.917Z,1.83
2022-10-26T17:17:13.127Z,2.00
2022-10-26T17:19:40.601Z,2.13
2022-10-26T17:22:08.912Z,1.75
2022-10-26T17:27:04.045Z,1.67
2022-10-26T17:29:32.851Z,1.77
2022-10-26T17:32:00.381Z,1.92
2022-10-26T17:34:27.862Z,2.67
2022-10-26T17:36:55.361Z,4.80
2022-10-26T17:39:22.867Z,4.68
2022-10-26T17:41:50.322Z,5.50
2022-10-26T17:44:17.909Z,8.50
2022-10-26T17:46:47.120Z,5.55
2022-10-26T17:49:14.588Z,4.97
2022-10-26T17:51:42.157Z,4.47
2022-10-26T17:54:09.969Z,4.20
2022-10-26T17:56:37.530Z,4.82
2022-10-26T17:59:06.822Z,4.50
2022-10-26T18:01:34.492Z,3.35
2022-10-26T18:04:03.397Z,4.20
2022-10-26T18:06:30.947Z,3.83
2022-10-26T18:08:59.144Z,4.20
2022-10-26T18:11:29.163Z,3.92
2022-10-26T18:13:57.294Z,3.83
2022-10-26T18:16:27.263Z,3.55
2022-10-26T18:18:59.937Z,4.65
2022-10-26T18:21:30.322Z,3.65
2022-10-26T18:23:57.901Z,2.33
2022-10-26T18:26:28.399Z,2.35
2022-10-26T18:28:56.512Z,2.80
2022-10-26T18:31:25.646Z,1.90
2022-10-26T18:33:56.484Z,1.67
2022-10-26T18:36:24.281Z,1.52
2022-10-26T18:38:53.221Z,1.70
2022-10-26T18:41:22.260Z,1.95
2022-10-26T18:43:51.104Z,2.00
2022-10-26T18:46:23.201Z,1.85
2022-10-26T18:48:50.926Z,1.77
2022-10-26T18:51:20.791Z,1.38
2022-10-26T18:53:49.280Z,1.40
2022-10-26T18:56:20.047Z,1.60
2022-10-26T18:58:49.593Z,1.05
2022-10-26T19:01:18.727Z,1.60
2022-10-26T19:03:46.921Z,1.63
2022-10-26T19:06:16.502Z,1.30
2022-10-26T19:08:44.721Z,1.27
2022-10-26T19:11:14.114Z,1.15
2022-10-26T19:13:43.117Z,0.88
2022-10-26T19:16:21.653Z,1.13
2022-10-26T19:19:01.001Z,1.23
2022-10-26T19:21:30.015Z,1.83
2022-10-26T19:23:59.599Z,1.90
2022-10-26T19:26:34.244Z,1.90
2022-10-26T19:29:07.055Z,2.00
2022-10-26T19:31:35.688Z,2.33
2022-10-26T19:34:04.086Z,3.10
2022-10-26T19:38:59.542Z,2.90
2022-10-26T19:41:28.104Z,2.78
2022-10-26T19:44:07.172Z,2.80
2022-10-26T19:47:00.613Z,2.50
2022-10-26T19:49:30.895Z,2.78
2022-10-26T19:51:58.930Z,2.42
2022-10-26T19:54:26.430Z,2.58
2022-10-26T19:56:53.907Z,2.10
2022-10-26T19:59:21.357Z,2.50
2022-10-26T20:01:50.246Z,2.78
2022-10-26T20:04:17.822Z,2.03
2022-10-26T20:06:45.362Z,2.13
2022-10-26T20:09:12.871Z,1.85
2022-10-26T20:11:42.894Z,2.10
2022-10-26T20:14:13.570Z,1.92
2022-10-26T20:16:41.289Z,2.40
2022-10-26T20:19:10.624Z,2.05
2022-10-26T20:21:38.198Z,2.00
2022-10-26T20:24:09.822Z,2.03
2022-10-26T20:26:37.933Z,1.80
2022-10-26T20:29:05.481Z,1.38
2022-10-26T20:31:32.992Z,1.83
2022-10-26T20:34:00.609Z,1.80
2022-10-26T20:36:29.629Z,1.85
2022-10-26T20:38:57.571Z,1.58
2022-10-26T20:41:25.613Z,1.25
2022-10-26T20:43:57.168Z,1.13
2022-10-26T20:46:27.643Z,1.60
2022-10-26T20:48:55.974Z,1.40
2022-10-26T20:51:33.885Z,1.48
2022-10-26T20:54:12.034Z,1.40
2022-10-26T20:56:41.406Z,1.00
2022-10-26T20:59:25.310Z,1.50
2022-10-26T21:01:53.128Z,1.30
2022-10-26T21:04:20.979Z,1.60
2022-10-26T21:06:48.466Z,1.55
2022-10-26T21:09:17.401Z,1.70
2022-10-26T21:11:45.986Z,1.92
2022-10-26T21:14:13.484Z,2.63
2022-10-26T21:16:41.128Z,1.60
2022-10-26T21:19:08.614Z,1.67
2022-10-26T21:21:36.114Z,1.58
2022-10-26T21:24:03.717Z,1.63
2022-10-26T21:26:32.605Z,1.50
2022-10-26T21:29:00.262Z,1.50
2022-10-26T21:31:27.792Z,1.40
2022-10-26T21:33:55.468Z,1.40
2022-10-26T21:36:22.999Z,1.45
2022-10-26T21:38:50.496Z,1.05
2022-10-26T21:41:19.726Z,0.98
2022-10-26T21:43:59.194Z,1.38
2022-10-26T21:46:36.894Z,0.98
2022-10-26T21:49:04.464Z,0.80
2022-10-26T21:51:31.972Z,1.30
2022-10-26T21:53:59.804Z,1.30
2022-10-26T21:56:27.696Z,0.88
2022-10-26T21:58:56.600Z,0.98
2022-10-26T22:01:24.277Z,1.23
2022-10-26T22:03:51.878Z,1.13
2022-10-26T22:08:53.310Z,1.08
2022-10-26T22:11:23.077Z,1.15
2022-10-26T22:13:52.149Z,1.08
2022-10-26T22:16:23.142Z,1.00
2022-10-26T22:18:52.172Z,1.08
2022-10-26T22:21:20.742Z,1.45
2022-10-26T22:26:17.753Z,1.10
2022-10-26T22:28:46.816Z,1.10
2022-10-26T22:31:16.162Z,1.20
2022-10-26T22:33:45.417Z,1.10
2022-10-26T22:36:14.988Z,1.25
2022-10-26T22:38:43.324Z,1.27
2022-10-26T22:41:11.821Z,1.02
2022-10-26T22:46:08.451Z,1.00
2022-10-26T22:48:36.843Z,1.00
2022-10-26T22:51:09.845Z,1.15
2022-10-26T22:53:37.694Z,1.10
2022-10-26T22:56:06.577Z,0.93
2022-10-26T22:58:34.853Z,1.10
2022-10-26T23:01:04.245Z,1.20
2022-10-26T23:03:31.805Z,0.90
2022-10-26T23:05:59.496Z,1.08
2022-10-26T23:12:08.873Z,1.10
2022-10-26T23:14:36.373Z,1.45
2022-10-26T23:17:06.058Z,1.20
2022-10-26T23:19:33.594Z,2.17
2022-10-26T23:22:01.115Z,1.08
2022-10-26T23:24:28.622Z,0.90
2022-10-26T23:26:56.158Z,1.00
2022-10-26T23:29:25.009Z,0.80
2022-10-26T23:31:52.472Z,1.10
2022-10-26T23:38:03.046Z,1.10
2022-10-26T23:40:30.568Z,1.00
2022-10-26T23:42:58.097Z,1.30
2022-10-26T23:45:26.981Z,1.20
2022-10-26T23:47:54.517Z,1.10
2022-10-26T23:50:22.027Z,1.23
2022-10-26T23:56:37.196Z,1.17
2022-10-26T23:59:07.364Z,1.25
